createdAt,value
2018-04-28T00:01:49.865Z,60.97
2018-04-28T00:04:18.326Z,61.68
2018-04-28T00:06:46.607Z,61.65
2018-04-28T00:09:14.884Z,62.36
2018-04-28T00:11:43.159Z,62.78
2018-04-28T00:14:11.528Z,63.21
2018-04-28T00:16:50.568Z,64.01
2018-04-28T00:19:22.331Z,64.44
2018-04-28T00:22:08.456Z,64.34
2018-04-28T00:27:41.327Z,64.03
2018-04-28T00:33:24.393Z,64.66
2018-04-28T00:36:11.879Z,64.38
2018-04-28T00:38:48.553Z,63.52
2018-04-28T00:41:16.817Z,63.08
2018-04-28T00:43:45.128Z,63.96
2018-04-28T00:46:23.626Z,63.46
2018-04-28T00:49:13.223Z,64.01
2018-04-28T00:51:42.320Z,63.54
2018-04-28T00:54:18.288Z,62.36
2018-04-28T00:56:53.776Z,62.62
2018-04-28T00:59:22.963Z,62.30
2018-04-28T01:01:54.547Z,62.89
2018-04-28T01:04:28.728Z,62.68
2018-04-28T01:06:57.018Z,62.49
2018-04-28T01:09:25.279Z,62.87
2018-04-28T01:11:53.570Z,63.87
2018-04-28T01:17:23.752Z,63.72
2018-04-28T01:20:03.521Z,63.17
2018-04-28T01:22:36.315Z,63.81
2018-04-28T01:25:12.262Z,63.77
2018-04-28T01:27:53.844Z,64.01
2018-04-28T01:30:37.252Z,63.24
2018-04-28T01:33:39.133Z,64.32
2018-04-28T01:39:25.158Z,64.87
2018-04-28T01:42:09.086Z,63.87
2018-04-28T01:44:41.964Z,64.38
2018-04-28T01:47:19.898Z,64.34
2018-04-28T01:49:48.297Z,64.49
2018-04-28T01:52:17.319Z,63.88
2018-04-28T01:58:25.874Z,63.12
2018-04-28T02:01:16.688Z,63.73
2018-04-28T02:03:47.832Z,63.17
2018-04-28T02:06:41.831Z,64.44
2018-04-28T02:09:19.338Z,64.34
2018-04-28T02:12:02.132Z,64.91
2018-04-28T02:14:34.569Z,65.47
2018-04-28T02:17:05.905Z,64.49
2018-04-28T02:20:03.185Z,64.33
2018-04-28T02:25:56.662Z,63.09
2018-04-28T02:31:56.338Z,64.30
2018-04-28T02:34:30.569Z,64.19
2018-04-28T02:37:31.482Z,63.98
2018-04-28T02:40:08.117Z,64.45
2018-04-28T02:51:54.199Z,63.90
2018-04-28T02:57:50.431Z,64.76
2018-04-28T03:03:23.059Z,63.66
2018-04-28T03:05:51.334Z,64.70
2018-04-28T03:08:23.089Z,64.39
2018-04-28T03:10:56.642Z,65.24
2018-04-28T03:13:37.639Z,64.84
2018-04-28T03:16:20.289Z,65.56
2018-04-28T03:18:48.576Z,64.64
2018-04-28T03:21:17.697Z,65.39
2018-04-28T03:23:59.210Z,66.04
2018-04-28T03:26:29.239Z,64.69
2018-04-28T03:31:54.042Z,64.11
2018-04-28T03:34:39.661Z,63.27
2018-04-28T03:40:14.022Z,64.37
2018-04-28T03:42:46.641Z,63.39
2018-04-28T03:45:14.918Z,64.46
2018-04-28T03:48:06.324Z,65.25
2018-04-28T03:50:38.785Z,65.41
2018-04-28T03:56:05.019Z,66.25
2018-04-28T03:58:51.714Z,66.81
2018-04-28T04:01:38.609Z,67.30
2018-04-28T04:04:16.455Z,67.11
2018-04-28T04:06:52.933Z,66.98
2018-04-28T04:09:48.555Z,66.88
2018-04-28T04:15:45.318Z,65.70
2018-04-28T04:18:31.383Z,65.55
2018-04-28T04:21:11.120Z,65.01
2018-04-28T04:23:42.803Z,65.91
2018-04-28T04:26:28.996Z,65.62
2018-04-28T04:32:00.477Z,67.01
2018-04-28T04:41:20.134Z,67.93
2018-04-28T04:47:21.553Z,67.50
2018-04-28T04:49:58.346Z,67.73
2018-04-28T04:52:46.205Z,67.83
2018-04-28T04:55:31.285Z,67.53
2018-04-28T05:04:42.160Z,66.08
2018-04-28T05:10:35.086Z,66.21
2018-04-28T05:19:25.205Z,65.71
2018-04-28T05:25:03.311Z,65.99
2018-04-28T05:31:02.360Z,68.70
2018-04-28T05:33:45.273Z,68.11
2018-04-28T05:39:30.827Z,67.31
2018-04-28T05:45:33.953Z,69.13
2018-04-28T05:48:15.327Z,69.45
2018-04-28T05:51:00.038Z,68.63
2018-04-28T06:03:36.817Z,69.31
2018-04-28T06:13:07.599Z,67.67
2018-04-28T06:16:04.283Z,64.67
2018-04-28T06:18:49.842Z,60.23
2018-04-28T06:21:18.899Z,60.34
2018-04-28T06:23:47.169Z,59.30
2018-04-28T06:26:15.420Z,59.25
2018-04-28T06:28:43.718Z,58.22
2018-04-28T06:31:12.164Z,57.61
2018-04-28T06:33:41.256Z,57.67
2018-04-28T06:36:09.527Z,58.23
2018-04-28T06:38:37.821Z,58.83
2018-04-28T06:41:06.267Z,59.25
2018-04-28T06:43:34.624Z,58.87
2018-04-28T06:46:02.924Z,59.24
2018-04-28T06:48:32.154Z,58.68
2018-04-28T06:51:00.462Z,58.56
2018-04-28T06:53:28.701Z,58.99
2018-04-28T06:55:56.966Z,59.01
2018-04-28T06:58:25.251Z,59.70
2018-04-28T07:00:53.524Z,59.46
2018-04-28T07:03:21.794Z,58.90
2018-04-28T07:05:50.226Z,58.04
2018-04-28T07:08:18.840Z,55.58
2018-04-28T07:10:47.285Z,55.60
2018-04-28T07:13:15.826Z,54.95
2018-04-28T07:15:44.315Z,55.02
2018-04-28T07:18:12.657Z,54.72
2018-04-28T07:20:41.074Z,53.08
2018-04-28T07:23:09.367Z,52.15
2018-04-28T07:25:37.812Z,52.39
2018-04-28T07:28:06.111Z,50.60
2018-04-28T07:30:34.408Z,51.24
2018-04-28T07:33:03.452Z,52.18
2018-04-28T07:35:31.727Z,52.33
2018-04-28T07:37:59.991Z,52.67
2018-04-28T07:40:28.281Z,52.33
2018-04-28T07:42:56.789Z,52.29
2018-04-28T07:45:25.123Z,52.53
2018-04-28T07:47:53.669Z,53.09
2018-04-28T07:50:22.503Z,51.08
2018-04-28T07:52:50.873Z,53.43
2018-04-28T07:55:20.249Z,52.10
2018-04-28T07:57:49.519Z,51.87
2018-04-28T08:00:18.108Z,52.74
2018-04-28T08:02:47.504Z,52.01
2018-04-28T08:05:16.590Z,52.98
2018-04-28T08:07:45.109Z,54.00
2018-04-28T08:10:13.794Z,52.62
2018-04-28T08:12:42.138Z,51.93
2018-04-28T08:15:10.871Z,51.94
2018-04-28T08:20:21.469Z,46.37
2018-04-28T08:22:49.966Z,46.80
2018-04-28T08:25:18.945Z,46.85
2018-04-28T08:27:48.555Z,46.55
2018-04-28T08:30:22.985Z,44.30
2018-04-28T08:32:51.603Z,46.39
2018-04-28T08:35:20.945Z,47.23
2018-04-28T08:37:49.332Z,47.19
2018-04-28T08:40:18.550Z,48.62
2018-04-28T08:42:47.052Z,50.07
2018-04-28T08:45:15.662Z,50.09
2018-04-28T08:47:44.180Z,50.59
2018-04-28T08:50:12.905Z,49.87
2018-04-28T08:52:41.906Z,49.71
2018-04-28T08:55:10.509Z,50.34
2018-04-28T08:57:38.965Z,49.64
2018-04-28T09:00:25.792Z,49.90
2018-04-28T09:02:54.368Z,49.93
2018-04-28T09:05:22.905Z,48.58
2018-04-28T09:07:51.342Z,47.83
2018-04-28T09:10:19.865Z,48.56
2018-04-28T09:12:49.055Z,48.36
2018-04-28T09:15:17.535Z,47.90
2018-04-28T09:17:45.914Z,46.94
2018-04-28T09:20:14.543Z,45.03
2018-04-28T09:22:43.016Z,45.15
2018-04-28T09:25:11.617Z,44.42
2018-04-28T09:27:40.056Z,44.22
2018-04-28T09:30:09.362Z,41.66
2018-04-28T09:32:38.670Z,42.84
2018-04-28T09:35:07.104Z,43.31
2018-04-28T09:37:35.507Z,43.58
2018-04-28T09:40:03.928Z,44.55
2018-04-28T09:42:32.104Z,44.87
2018-04-28T09:45:00.385Z,47.04
2018-04-28T09:47:28.731Z,44.66
2018-04-28T09:49:58.180Z,45.30
2018-04-28T09:52:26.460Z,42.11
2018-04-28T09:54:54.743Z,41.52
2018-04-28T09:57:23.065Z,40.44
2018-04-28T09:59:52.113Z,40.13
2018-04-28T10:02:20.405Z,39.48
2018-04-28T10:04:48.774Z,39.20
2018-04-28T10:07:17.861Z,41.38
2018-04-28T10:09:46.119Z,40.25
2018-04-28T10:12:14.445Z,40.84
2018-04-28T10:14:43.688Z,40.41
2018-04-28T10:17:11.987Z,39.19
2018-04-28T10:19:40.339Z,40.38
2018-04-28T10:22:08.664Z,41.37
2018-04-28T10:24:37.046Z,39.73
2018-04-28T10:27:05.301Z,38.84
2018-04-28T10:29:33.646Z,39.15
2018-04-28T10:32:01.929Z,39.50
2018-04-28T10:34:30.229Z,40.04
2018-04-28T10:36:58.554Z,42.64
2018-04-28T10:39:26.831Z,42.71
2018-04-28T10:41:55.080Z,43.31
2018-04-28T10:44:24.121Z,44.06
2018-04-28T10:46:52.595Z,44.11
2018-04-28T10:49:20.921Z,44.83
2018-04-28T10:51:49.178Z,44.85
2018-04-28T10:54:17.465Z,44.53
2018-04-28T10:56:45.888Z,44.14
2018-04-28T10:59:14.161Z,43.21
2018-04-28T11:01:42.453Z,44.24
2018-04-28T11:04:10.835Z,43.91
2018-04-28T11:06:39.096Z,44.08
2018-04-28T11:09:07.346Z,46.15
2018-04-28T11:11:35.701Z,45.71
2018-04-28T11:14:04.213Z,45.28
2018-04-28T11:16:32.486Z,45.71
2018-04-28T11:19:00.890Z,46.18
2018-04-28T11:21:29.170Z,46.30
2018-04-28T11:23:57.462Z,46.96
2018-04-28T11:26:25.762Z,47.14
2018-04-28T11:28:54.054Z,46.89
2018-04-28T11:31:23.094Z,46.35
2018-04-28T11:33:51.368Z,46.96
2018-04-28T11:36:19.632Z,46.72
2018-04-28T11:38:47.908Z,47.42
2018-04-28T11:41:16.183Z,46.95
2018-04-28T11:43:44.481Z,46.96
2018-04-28T11:46:12.721Z,46.14
2018-04-28T11:48:40.998Z,45.99
2018-04-28T11:51:10.069Z,46.92
2018-04-28T11:53:39.127Z,46.40
2018-04-28T11:56:07.715Z,45.27
2018-04-28T11:58:36.141Z,44.50
2018-04-28T12:01:04.408Z,41.91
2018-04-28T12:03:32.689Z,42.45
2018-04-28T12:06:00.971Z,42.52
2018-04-28T12:08:29.264Z,42.89
2018-04-28T12:10:57.514Z,41.92
2018-04-28T12:13:25.771Z,40.20
2018-04-28T12:15:54.899Z,40.85
2018-04-28T12:18:23.149Z,40.60
2018-04-28T12:20:52.191Z,41.14
2018-04-28T12:23:20.460Z,41.84
2018-04-28T12:25:48.740Z,43.12
2018-04-28T12:28:17.006Z,45.00
2018-04-28T12:30:45.331Z,43.79
2018-04-28T12:33:13.646Z,43.87
2018-04-28T12:35:42.025Z,42.84
2018-04-28T12:38:10.709Z,40.44
2018-04-28T12:40:38.953Z,39.35
2018-04-28T12:43:08.100Z,39.98
2018-04-28T12:45:36.400Z,40.53
2018-04-28T12:48:05.458Z,39.61
2018-04-28T12:50:33.773Z,40.54
2018-04-28T12:53:02.008Z,42.54
2018-04-28T12:55:30.253Z,42.38
2018-04-28T12:57:58.541Z,41.09
2018-04-28T13:00:26.845Z,40.40
2018-04-28T13:02:55.218Z,41.04
2018-04-28T13:05:23.487Z,42.31
2018-04-28T13:07:51.774Z,41.43
2018-04-28T13:10:20.092Z,40.84
2018-04-28T13:12:49.121Z,41.40
2018-04-28T13:15:17.416Z,44.58
2018-04-28T13:17:45.724Z,42.22
2018-04-28T13:20:14.496Z,43.01
2018-04-28T13:22:42.770Z,41.54
2018-04-28T13:25:12.245Z,42.88
2018-04-28T13:27:40.602Z,44.37
2018-04-28T13:30:08.872Z,42.77
2018-04-28T13:32:37.429Z,42.61
2018-04-28T13:35:06.459Z,42.24
2018-04-28T13:37:34.871Z,41.74
2018-04-28T13:40:03.155Z,42.39
2018-04-28T13:42:31.434Z,42.80
2018-04-28T13:44:59.701Z,41.92
2018-04-28T13:47:27.977Z,42.54
2018-04-28T13:49:56.281Z,40.87
2018-04-28T13:52:25.319Z,41.32
2018-04-28T13:54:53.614Z,40.29
2018-04-28T13:57:21.871Z,41.66
2018-04-28T13:59:50.145Z,42.27
2018-04-28T14:02:18.906Z,41.24
2018-04-28T14:04:47.185Z,40.44
2018-04-28T14:07:15.471Z,41.41
2018-04-28T14:09:43.896Z,40.96
2018-04-28T14:12:12.301Z,40.55
2018-04-28T14:14:40.770Z,40.69
2018-04-28T14:17:09.861Z,40.57
2018-04-28T14:19:38.242Z,39.41
2018-04-28T14:22:07.306Z,39.75
2018-04-28T14:24:35.713Z,40.69
2018-04-28T14:27:04.844Z,40.21
2018-04-28T14:29:33.008Z,40.51
2018-04-28T14:32:01.357Z,40.55
2018-04-28T14:34:30.385Z,41.49
2018-04-28T14:36:58.667Z,41.71
2018-04-28T14:39:27.055Z,42.46
2018-04-28T14:41:55.443Z,44.55
2018-04-28T14:44:23.787Z,41.47
2018-04-28T14:46:52.072Z,39.77
2018-04-28T14:49:20.527Z,40.27
2018-04-28T14:51:48.797Z,37.08
2018-04-28T14:54:17.062Z,38.23
2018-04-28T14:56:46.127Z,38.28
2018-04-28T14:59:15.187Z,38.09
2018-04-28T15:01:43.459Z,38.41
2018-04-28T15:04:11.745Z,38.07
2018-04-28T15:06:40.014Z,38.87
2018-04-28T15:09:08.292Z,38.42
2018-04-28T15:11:36.599Z,38.85
2018-04-28T15:14:05.670Z,38.73
2018-04-28T15:16:33.935Z,37.43
2018-04-28T15:19:02.207Z,37.94
2018-04-28T15:21:30.490Z,38.07
2018-04-28T15:23:58.791Z,38.23
2018-04-28T15:26:28.698Z,38.35
2018-04-28T15:28:57.709Z,38.40
2018-04-28T15:31:26.449Z,38.60
2018-04-28T15:33:54.752Z,38.86
2018-04-28T15:36:24.143Z,37.85
2018-04-28T15:38:52.523Z,36.79
2018-04-28T15:41:20.967Z,37.36
2018-04-28T15:43:49.250Z,36.50
2018-04-28T15:46:17.578Z,37.22
2018-04-28T15:48:45.870Z,35.57
2018-04-28T15:51:15.100Z,36.70
2018-04-28T15:53:43.357Z,37.08
2018-04-28T15:56:11.685Z,36.45
2018-04-28T15:58:39.947Z,37.15
2018-04-28T16:01:08.261Z,36.57
2018-04-28T16:03:37.301Z,36.91
2018-04-28T16:06:05.609Z,36.38
2018-04-28T16:08:33.905Z,35.67
2018-04-28T16:11:02.224Z,35.48
2018-04-28T16:13:30.521Z,36.81
2018-04-28T16:15:58.981Z,36.91
2018-04-28T16:18:27.615Z,36.62
2018-04-28T16:20:55.905Z,36.70
2018-04-28T16:23:24.954Z,37.99
2018-04-28T16:25:53.214Z,38.83
2018-04-28T16:28:21.572Z,39.19
2018-04-28T16:30:49.893Z,39.28
2018-04-28T16:33:18.201Z,38.05
2018-04-28T16:35:46.613Z,38.02
2018-04-28T16:38:14.916Z,37.73
2018-04-28T16:40:43.189Z,37.09
2018-04-28T16:43:11.548Z,36.78
2018-04-28T16:45:39.823Z,37.44
2018-04-28T16:48:08.394Z,37.78
2018-04-28T16:50:36.764Z,37.54
2018-04-28T16:53:04.971Z,36.67
2018-04-28T16:55:33.559Z,37.56
2018-04-28T16:58:05.979Z,38.16
2018-04-28T17:00:34.296Z,37.75
2018-04-28T17:03:02.787Z,38.12
2018-04-28T17:05:31.250Z,39.77
2018-04-28T17:07:59.810Z,37.81
2018-04-28T17:10:28.086Z,37.92
2018-04-28T17:12:56.412Z,39.61
2018-04-28T17:15:24.721Z,39.41
2018-04-28T17:17:54.941Z,38.79
2018-04-28T17:20:23.244Z,39.41
2018-04-28T17:22:51.520Z,39.73
2018-04-28T17:25:19.816Z,39.83
2018-04-28T17:27:48.213Z,40.87
2018-04-28T17:30:16.635Z,40.67
2018-04-28T17:32:45.166Z,40.86
2018-04-28T17:35:13.832Z,41.45
2018-04-28T17:37:42.307Z,40.68
2018-04-28T17:40:10.617Z,40.65
2018-04-28T17:42:38.892Z,41.13
2018-04-28T17:45:07.261Z,41.35
2018-04-28T17:47:36.160Z,41.73
2018-04-28T17:50:04.605Z,40.71
2018-04-28T17:52:32.989Z,40.96
2018-04-28T17:55:01.330Z,41.57
2018-04-28T17:57:29.834Z,41.05
2018-04-28T17:59:58.213Z,41.52
2018-04-28T18:02:26.547Z,41.30
2018-04-28T18:04:55.710Z,41.61
2018-04-28T18:07:24.273Z,40.81
2018-04-28T18:09:53.419Z,41.17
2018-04-28T18:12:22.513Z,41.59
2018-04-28T18:14:51.771Z,41.42
2018-04-28T18:17:20.120Z,41.86
2018-04-28T18:19:48.438Z,42.08
2018-04-28T18:22:16.818Z,42.50
2018-04-28T18:24:45.161Z,42.56
2018-04-28T18:27:13.474Z,42.83
2018-04-28T18:29:42.518Z,42.43
2018-04-28T18:32:10.823Z,42.78
2018-04-28T18:34:39.247Z,43.21
2018-04-28T18:37:07.707Z,42.81
2018-04-28T18:39:36.035Z,42.95
2018-04-28T18:42:04.327Z,42.76
2018-04-28T18:44:32.600Z,43.24
2018-04-28T18:47:00.894Z,43.75
2018-04-28T18:49:29.208Z,43.78
2018-04-28T18:51:57.497Z,44.37
2018-04-28T18:54:25.786Z,44.35
2018-04-28T18:56:54.275Z,44.85
2018-04-28T18:59:22.605Z,45.17
2018-04-28T19:01:51.701Z,45.17
2018-04-28T19:04:20.009Z,44.71
2018-04-28T19:06:48.454Z,44.25
2018-04-28T19:09:17.522Z,44.24
2018-04-28T19:11:45.795Z,44.18
2018-04-28T19:14:14.846Z,45.66
2018-04-28T19:16:43.456Z,45.26
2018-04-28T19:19:11.775Z,44.83
2018-04-28T19:21:40.820Z,45.02
2018-04-28T19:24:09.575Z,45.50
2018-04-28T19:26:37.857Z,45.65
2018-04-28T19:29:06.149Z,45.52
2018-04-28T19:31:34.469Z,45.70
2018-04-28T19:34:02.754Z,46.08
2018-04-28T19:36:31.799Z,46.62
2018-04-28T19:39:00.095Z,47.22
2018-04-28T19:41:28.422Z,47.60
2018-04-28T19:43:56.711Z,47.96
2018-04-28T19:46:24.991Z,48.25
2018-04-28T19:48:53.274Z,49.77
2018-04-28T19:51:21.609Z,50.61
2018-04-28T19:53:50.676Z,51.30
2018-04-28T19:56:18.969Z,52.44
2018-04-28T19:58:48.134Z,52.21
2018-04-28T20:01:16.396Z,52.69
2018-04-28T20:03:44.685Z,53.13
2018-04-28T20:06:13.041Z,53.57
2018-04-28T20:08:41.316Z,54.61
2018-04-28T20:11:09.620Z,57.21
2018-04-28T20:13:37.980Z,60.28
2018-04-28T20:16:06.269Z,64.61
2018-04-28T20:18:34.542Z,66.90
2018-04-28T20:21:02.863Z,69.05
2018-04-28T20:23:49.423Z,71.17
2018-04-28T20:26:17.734Z,71.20
2018-04-28T20:28:46.789Z,74.08
2018-04-28T20:31:15.170Z,75.07
2018-04-28T20:33:43.441Z,75.19
2018-04-28T20:36:11.806Z,75.37
2018-04-28T20:38:40.007Z,75.34
2018-04-28T20:41:08.289Z,75.10
2018-04-28T20:43:36.541Z,74.89
2018-04-28T20:46:04.853Z,76.60
2018-04-28T20:48:33.131Z,76.98
2018-04-28T20:51:02.153Z,76.47
2018-04-28T20:53:30.468Z,78.47
2018-04-28T20:55:58.722Z,77.83
2018-04-28T20:58:27.026Z,76.12
2018-04-28T21:00:55.291Z,75.87
2018-04-28T21:03:23.555Z,78.66
2018-04-28T21:05:51.952Z,80.99
2018-04-28T21:08:20.227Z,81.48
2018-04-28T21:10:48.505Z,82.66
2018-04-28T21:13:16.791Z,82.99
2018-04-28T21:15:45.097Z,83.70
2018-04-28T21:18:14.161Z,85.28
2018-04-28T21:20:43.206Z,86.08
2018-04-28T21:23:11.690Z,87.83
2018-04-28T21:25:39.964Z,88.62
2018-04-28T21:28:08.238Z,88.79
2018-04-28T21:30:36.653Z,87.99
2018-04-28T21:33:04.931Z,90.58
2018-04-28T21:35:33.207Z,90.87
2018-04-28T21:38:01.495Z,90.30
2018-04-28T21:40:29.791Z,90.22
2018-04-28T21:42:58.110Z,91.24
2018-04-28T21:45:26.445Z,92.11
2018-04-28T21:47:55.084Z,91.35
2018-04-28T21:50:23.401Z,92.46
2018-04-28T21:52:52.419Z,90.92
2018-04-28T21:55:20.836Z,91.37
2018-04-28T21:57:49.963Z,90.83
2018-04-28T22:00:19.235Z,89.97
2018-04-28T22:02:48.998Z,89.67
2018-04-28T22:05:17.303Z,89.87
2018-04-28T22:07:45.558Z,92.21
2018-04-28T22:10:13.838Z,93.56
2018-04-28T22:12:42.105Z,92.75
2018-04-28T22:15:10.765Z,93.06
2018-04-28T22:17:39.162Z,93.41
2018-04-28T22:20:07.449Z,93.13
2018-04-28T22:22:35.771Z,92.73
2018-04-28T22:25:04.827Z,92.03
2018-04-28T22:27:33.213Z,92.01
2018-04-28T22:30:01.483Z,93.75
2018-04-28T22:32:29.847Z,93.49
2018-04-28T22:34:58.325Z,94.31
2018-04-28T22:37:26.987Z,93.75
2018-04-28T22:39:55.254Z,92.96
2018-04-28T22:42:23.557Z,95.00
2018-04-28T22:44:51.832Z,94.84
2018-04-28T22:47:20.154Z,94.19
2018-04-28T22:49:48.414Z,93.73
2018-04-28T22:52:16.887Z,93.98
2018-04-28T22:54:45.134Z,93.37
2018-04-28T22:57:13.421Z,93.05
2018-04-28T22:59:41.735Z,93.94
2018-04-28T23:02:09.992Z,94.34
2018-04-28T23:04:38.251Z,92.92
2018-04-28T23:07:06.529Z,92.84
2018-04-28T23:09:34.875Z,94.82
2018-04-28T23:12:03.592Z,96.71
2018-04-28T23:14:32.068Z,97.95
2018-04-28T23:17:00.394Z,98.61
2018-04-28T23:19:28.765Z,98.59
2018-04-28T23:21:57.790Z,97.58
2018-04-28T23:24:26.069Z,97.17
2018-04-28T23:26:54.350Z,97.98
2018-04-28T23:29:22.640Z,98.04
2018-04-28T23:31:50.924Z,96.91
2018-04-28T23:34:19.178Z,97.65
2018-04-28T23:36:47.480Z,96.89
2018-04-28T23:39:15.828Z,97.33
2018-04-28T23:41:44.107Z,97.08
2018-04-28T23:44:12.450Z,96.45
2018-04-28T23:46:40.787Z,96.09
2018-04-28T23:49:10.565Z,96.27
2018-04-28T23:51:38.838Z,95.42
2018-04-28T23:54:07.500Z,96.28
2018-04-28T23:56:35.778Z,96.32
2018-04-28T23:59:04.042Z,96.03
